Terminal Aerodrome Forecast
Issued by NWS

Home | Current Version | Previous Version | Text Only | Print | Product List | Glossary On
Versions: 1 2 3 4 5 6 7 8 9 10 11 12 13 14 15 16 17 18 19
000
FTUS43 KICT 230754 AAA
TAFRSL
TAF AMD
KRSL 230754Z 2308/2406 15012KT P6SM OVC008
      TEMPO 2308/2310 4SM -DZ BR SCT004 OVC006
     FM231000 15012KT 3SM -DZ BR OVC004
     FM231600 14015KT 5SM -SHRA VCTS SCT008 OVC010CB
     FM232200 14015KT P6SM BKN015
     FM240100 14012KT 4SM BR SCT004 BKN007=

USA.gov is the U.S. government's official web portal to all federal, state and local government web resources and services.